Ocean City, MD

7:55 PM EST on November 22, 2014 (GMT -0500)
Ocean City | Change Station
CLOSE
Current Station
Personal Weather Station
Location: Ocean City, MD
Elevation: 20 ft
Nearby Weather Stations

Elev 20 ft 38.38 °N, 75.07 °W | Updated 9 minutes ago

Clear
Clear
43.0 °F
Feels Like 39 °F
N
7.3
Wind Variable Wind from WSW

Today
High -- | Low -- °F
--% Chance of Precip.
Yesterday
High -- | Low -- °F
Precip. -- in
6:49 AM 4:43 PM
New Moon, 0% visible
Pressure 30.35 in
Visibility 10.0 miles
Clouds Clear
Windchill 39 °F
Dew Point 32 °F
Humidity 66%
Rainfall 0.00 in
Snow Depth Not available.
UV 0 out of 12
Pollen .10 out of 12
Air Quality Not available.
Flu Activity Not available.
METAR KOXB 222353Z AUTO 21007KT 10SM CLR 05/M02 A3035 RMK AO2 SLP278 T00501017 10078 20039 56011 TSNO

More Conditions Fewer Conditions

Pressure 30.35 in
Visibility 10.0 miles
Clouds Clear
Windchill 39 °F
Dew Point 32 °F
Humidity 66%
Rainfall 0.00 in
Snow Depth Not available.
UV 0 out of 12
Pollen .10 out of 12
Air Quality Not available.
Flu Activity Not available.
METAR KOXB 222353Z AUTO 21007KT 10SM CLR 05/M02 A3035 RMK AO2 SLP278 T00501017 10078 20039 56011 TSNO

More Conditions Fewer Conditions

10-Day Weather Forecast

Almanac

Astronomy

Nov. 22, 2014 Rise Set
Actual Time
Civil Twilight
Nautical Twilight
Astronomical Twilight
Moon
Length of Visible Light
Length of Day
Tomorrow will be .
, % of the Moon is Illuminated

Today's Extremes

State Highs State Lows

Community

WunderPhotos

Upload Photos

1,772,938 photos uploaded!

WunderBlogs® & News

Nearby

Air Quality

  Air Quality AQ Index Pollutant
Not available.

Snow Depth

Station Depth Elevation

Earthquake Activity

City Distance Mag. Time & Date
Minimum magnitude displayed is 2.5.

Coastal Water Temperatures

Place Temperature

Nearby Weather Stations